Time;durP1;ratioP1;P1;durP2;ratioP2;P2;SDS_P1;SDS_P2;PMS_P1;PMS_P2;Temp;Humidity;BMP_temperature;BMP_pressure;BME280_temperature;BME280_humidity;BME280_pressure;Samples;Min_cycle;Max_cycle;Signal;HPM_P1;HPM_P2
2021/09/21 00:00:43;;;;;;;7.22;6.40;;;12.50;76.80;;;;;;4997758;28;20544;-68
2021/09/21 00:03:08;;;;;;;8.60;6.70;;;12.50;76.80;;;;;;5011971;28;20389;-68
2021/09/21 00:05:35;;;;;;;7.15;6.10;;;12.50;76.50;;;;;;4998869;28;20045;-70
2021/09/21 00:08:01;;;;;;;8.32;6.65;;;12.50;76.30;;;;;;4997727;28;20567;-68
2021/09/21 00:10:27;;;;;;;9.38;7.13;;;12.50;76.20;;;;;;4997766;28;20038;-69
2021/09/21 00:12:52;;;;;;;10.20;6.78;;;12.50;76.30;;;;;;4997251;28;20057;-69
2021/09/21 00:15:20;;;;;;;8.48;7.05;;;12.40;76.30;;;;;;4998025;28;20545;-68
2021/09/21 00:17:46;;;;;;;8.77;7.18;;;12.40;76.50;;;;;;4998514;28;20028;-68
2021/09/21 00:20:13;;;;;;;8.63;6.70;;;12.40;76.50;;;;;;5000031;28;20412;-68
2021/09/21 00:22:39;;;;;;;8.05;6.50;;;12.30;76.50;;;;;;4997929;28;20030;-68
2021/09/21 00:25:06;;;;;;;9.30;6.93;;;12.30;76.30;;;;;;4999519;28;20042;-69
2021/09/21 00:27:32;;;;;;;8.68;6.97;;;12.30;76.50;;;;;;4997378;28;20030;-68
2021/09/21 00:29:58;;;;;;;7.47;6.28;;;12.20;76.60;;;;;;4998718;28;20033;-68
2021/09/21 00:32:25;;;;;;;7.45;6.55;;;12.20;76.80;;;;;;5010530;28;20034;-68
2021/09/21 00:34:52;;;;;;;8.25;6.75;;;12.20;76.80;;;;;;4998596;28;20489;-68
2021/09/21 00:37:19;;;;;;;8.43;6.90;;;12.20;77.00;;;;;;5002768;28;20580;-68
2021/09/21 00:39:46;;;;;;;9.52;6.45;;;12.20;77.10;;;;;;4998370;28;20152;-69
2021/09/21 00:42:13;;;;;;;7.13;6.10;;;12.20;77.20;;;;;;4996626;28;20145;-69
2021/09/21 00:44:40;;;;;;;8.05;6.28;;;12.20;77.30;;;;;;4994195;28;20121;-68
2021/09/21 00:47:10;;;;;;;9.93;6.47;;;12.20;77.50;;;;;;5002797;28;20046;-68
2021/09/21 00:49:36;;;;;;;8.57;6.93;;;12.20;77.50;;;;;;4999855;28;20034;-68
2021/09/21 00:52:03;;;;;;;8.70;6.60;;;12.20;77.70;;;;;;4997482;28;20521;-68
2021/09/21 00:54:29;;;;;;;8.65;7.13;;;12.20;77.60;;;;;;4998282;28;20080;-69
2021/09/21 00:56:56;;;;;;;9.48;7.32;;;12.20;77.50;;;;;;4997572;28;20033;-68
2021/09/21 00:59:23;;;;;;;9.30;7.63;;;12.20;77.50;;;;;;4997486;28;20041;-68
2021/09/21 01:01:49;;;;;;;8.48;6.75;;;12.20;77.60;;;;;;4997193;28;20030;-69
2021/09/21 01:04:15;;;;;;;9.18;7.38;;;12.20;77.90;;;;;;4996493;28;20030;-68
2021/09/21 01:06:41;;;;;;;13.38;8.30;;;12.20;78.30;;;;;;4996512;28;20035;-69
2021/09/21 01:09:19;;;;;;;11.00;8.40;;;12.10;78.40;;;;;;4998614;28;22587;-70
2021/09/21 01:11:54;;;;;;;11.00;7.85;;;12.20;79.30;;;;;;4999843;28;20038;-69
2021/09/21 01:14:20;;;;;;;10.88;7.50;;;12.20;79.40;;;;;;4998390;28;20094;-69
2021/09/21 01:16:48;;;;;;;12.95;8.50;;;12.20;79.30;;;;;;4998291;28;20026;-69
2021/09/21 01:19:15;;;;;;;12.70;8.73;;;12.30;79.60;;;;;;5014556;28;20080;-70
2021/09/21 01:21:41;;;;;;;9.15;7.78;;;12.30;79.60;;;;;;4997737;28;20531;-69
2021/09/21 01:24:08;;;;;;;9.80;7.82;;;12.30;79.50;;;;;;5003617;28;20038;-68
2021/09/21 01:26:34;;;;;;;10.80;7.97;;;12.40;79.60;;;;;;4998130;28;20165;-69
2021/09/21 01:29:00;;;;;;;9.75;7.22;;;12.40;79.60;;;;;;4999327;28;20120;-68
2021/09/21 01:31:26;;;;;;;8.07;6.53;;;12.50;79.50;;;;;;5000446;28;20033;-69
2021/09/21 01:33:53;;;;;;;8.65;6.75;;;12.50;79.10;;;;;;4999362;28;20049;-68
2021/09/21 01:36:23;;;;;;;6.90;5.97;;;12.50;79.10;;;;;;4999679;28;20492;-68
2021/09/21 01:38:49;;;;;;;8.65;6.97;;;12.50;79.30;;;;;;4995954;28;20197;-69
2021/09/21 01:41:15;;;;;;;9.07;7.25;;;12.50;80.20;;;;;;4980327;28;20038;-68
2021/09/21 01:43:44;;;;;;;8.55;6.93;;;12.50;79.40;;;;;;4978657;28;20031;-66
2021/09/21 01:46:11;;;;;;;9.65;7.13;;;12.60;79.50;;;;;;4978635;28;20047;-68
2021/09/21 01:48:37;;;;;;;11.00;8.38;;;12.60;79.60;;;;;;4980982;28;20046;-69
2021/09/21 01:51:11;;;;;;;9.15;7.65;;;12.60;79.60;;;;;;4979656;28;20686;-68
2021/09/21 01:58:47;;;;;;;12.68;8.27;;;12.80;79.80;;;;;;4978410;28;20033;-68
2021/09/21 02:01:19;;;;;;;10.57;8.15;;;12.80;79.40;;;;;;4982526;28;20113;-68
2021/09/21 02:03:46;;;;;;;11.50;8.48;;;12.80;79.40;;;;;;4978293;28;20501;-68
2021/09/21 02:06:12;;;;;;;11.60;8.50;;;12.80;79.00;;;;;;4979371;28;20042;-69
2021/09/21 02:08:38;;;;;;;10.48;7.88;;;12.80;78.80;;;;;;4978212;28;20098;-69
2021/09/21 02:11:04;;;;;;;10.07;7.95;;;12.80;78.90;;;;;;4985599;28;20448;-68
2021/09/21 02:13:30;;;;;;;14.15;9.15;;;12.70;79.20;;;;;;4988993;28;20038;-68
2021/09/21 02:15:56;;;;;;;14.13;9.98;;;12.70;79.40;;;;;;4980367;28;20039;-68
2021/09/21 02:18:22;;;;;;;13.63;10.05;;;12.60;79.80;;;;;;4979569;28;20038;-67
2021/09/21 02:20:48;;;;;;;12.52;9.15;;;12.50;80.10;;;;;;4997139;28;20065;-68
2021/09/21 02:23:14;;;;;;;14.15;10.00;;;12.50;80.60;;;;;;4997382;28;20113;-68
2021/09/21 02:25:40;;;;;;;14.88;10.43;;;12.50;81.00;;;;;;5000651;28;20037;-68
2021/09/21 02:28:05;;;;;;;12.73;9.98;;;12.50;81.40;;;;;;4997931;28;20038;-68
2021/09/21 02:30:31;;;;;;;14.70;9.85;;;12.50;81.50;;;;;;5012923;28;20088;-68
2021/09/21 02:32:57;;;;;;;13.20;9.57;;;12.50;81.70;;;;;;5013278;28;20504;-69
2021/09/21 02:35:22;;;;;;;14.50;10.38;;;12.50;81.90;;;;;;4998344;28;20056;-68
2021/09/21 02:37:48;;;;;;;14.65;11.15;;;12.50;82.00;;;;;;4997337;28;20033;-69
2021/09/21 02:40:14;;;;;;;15.73;11.25;;;12.60;82.00;;;;;;4999081;28;20058;-68
2021/09/21 02:42:41;;;;;;;17.50;11.07;;;12.60;82.00;;;;;;4994637;28;20046;-68
2021/09/21 02:45:07;;;;;;;15.00;9.88;;;12.60;82.30;;;;;;4999931;28;20041;-68
2021/09/21 02:47:34;;;;;;;14.77;10.20;;;12.60;82.20;;;;;;4998346;28;20034;-68
2021/09/21 02:49:59;;;;;;;14.00;10.38;;;12.60;82.20;;;;;;4997335;28;20034;-69
2021/09/21 02:52:25;;;;;;;16.13;10.80;;;12.70;82.20;;;;;;4996629;28;20040;-69
2021/09/21 02:54:51;;;;;;;15.02;10.95;;;12.70;82.00;;;;;;4999034;28;20037;-68
2021/09/21 02:57:17;;;;;;;14.30;10.68;;;12.80;81.90;;;;;;4999741;28;20034;-68
2021/09/21 02:59:43;;;;;;;15.82;10.90;;;12.80;82.00;;;;;;5001387;28;20048;-68
2021/09/21 03:02:08;;;;;;;17.38;12.20;;;12.80;82.00;;;;;;4999699;28;20050;-68
2021/09/21 03:04:38;;;;;;;13.55;10.68;;;12.90;82.10;;;;;;5011342;28;20288;-68
2021/09/21 03:07:10;;;;;;;14.23;10.98;;;12.90;82.00;;;;;;4998958;28;20037;-69
2021/09/21 03:09:50;;;;;;;15.70;11.48;;;12.90;81.90;;;;;;4998167;28;20042;-68
2021/09/21 03:17:32;;;;;;;13.85;10.98;;;13.00;81.70;;;;;;4996586;28;21338;-68
2021/09/21 03:19:59;;;;;;;13.43;10.32;;;13.10;81.60;;;;;;4997339;28;20042;-68
2021/09/21 03:22:27;;;;;;;16.13;11.23;;;13.10;81.50;;;;;;4994686;28;20057;-68
2021/09/21 03:24:54;;;;;;;14.20;10.77;;;13.20;81.60;;;;;;4998330;28;20667;-68
2021/09/21 03:27:20;;;;;;;14.15;10.30;;;13.20;81.50;;;;;;4997649;28;20038;-69
2021/09/21 03:29:46;;;;;;;16.05;11.25;;;13.20;81.40;;;;;;4996859;28;20026;-68
2021/09/21 03:32:13;;;;;;;14.15;10.40;;;13.20;81.00;;;;;;4996248;28;20269;-68
2021/09/21 03:34:39;;;;;;;14.45;10.38;;;13.20;81.20;;;;;;4998091;28;20061;-69
2021/09/21 03:37:06;;;;;;;14.45;11.35;;;13.30;81.30;;;;;;4994264;28;20058;-68
2021/09/21 03:39:32;;;;;;;15.02;10.50;;;13.30;81.30;;;;;;4995575;28;20034;-68
2021/09/21 03:41:58;;;;;;;21.52;12.57;;;13.30;81.30;;;;;;4998752;28;20081;-68
2021/09/21 03:44:26;;;;;;;158.05;56.25;;;13.40;81.30;;;;;;4993953;28;20481;-69
2021/09/21 03:46:51;;;;;;;158.90;55.05;;;13.40;81.20;;;;;;4996130;28;20045;-68
2021/09/21 03:49:17;;;;;;;86.85;33.80;;;13.40;81.20;;;;;;4995457;28;20034;-68
2021/09/21 03:51:43;;;;;;;62.00;26.45;;;13.50;81.10;;;;;;4998536;28;20471;-69
2021/09/21 03:54:09;;;;;;;53.47;22.42;;;13.50;81.00;;;;;;4996821;28;20030;-68
2021/09/21 03:56:36;;;;;;;28.90;15.85;;;13.50;80.90;;;;;;4996171;28;20832;-68
2021/09/21 03:59:06;;;;;;;18.58;11.90;;;13.60;80.90;;;;;;4998403;28;20815;-68
2021/09/21 04:01:32;;;;;;;20.75;12.60;;;13.60;80.80;;;;;;4996463;28;21827;-68
2021/09/21 04:03:58;;;;;;;17.85;11.80;;;13.50;80.50;;;;;;4996835;28;20108;-68
2021/09/21 04:06:24;;;;;;;16.23;11.20;;;13.60;80.50;;;;;;4995715;28;20124;-69
2021/09/21 04:08:51;;;;;;;17.52;11.15;;;13.50;80.50;;;;;;4999399;28;20061;-69
2021/09/21 04:11:18;;;;;;;13.75;10.75;;;13.50;80.60;;;;;;4993208;28;20732;-68
2021/09/21 04:13:44;;;;;;;15.95;11.02;;;13.50;80.60;;;;;;4995249;28;20038;-69
2021/09/21 04:16:09;;;;;;;14.70;10.23;;;13.50;80.70;;;;;;4993491;28;20034;-68
2021/09/21 04:18:35;;;;;;;16.17;11.05;;;13.50;80.80;;;;;;4995900;28;20044;-69
2021/09/21 04:21:01;;;;;;;15.43;10.93;;;13.60;81.00;;;;;;4994680;28;20766;-69
2021/09/21 04:23:27;;;;;;;14.93;9.95;;;13.60;81.00;;;;;;4997003;28;20040;-68
2021/09/21 04:25:53;;;;;;;15.60;11.40;;;13.60;80.90;;;;;;4996074;28;20033;-69
2021/09/21 04:28:20;;;;;;;14.02;10.77;;;13.60;80.70;;;;;;4992123;28;20068;-69
2021/09/21 04:30:51;;;;;;;13.07;10.15;;;13.60;80.50;;;;;;4992821;28;20141;-69
2021/09/21 04:33:17;;;;;;;15.00;10.80;;;13.60;80.60;;;;;;4994712;28;20512;-68
2021/09/21 04:35:43;;;;;;;16.63;11.52;;;13.60;80.60;;;;;;4995746;28;20034;-69
2021/09/21 04:38:10;;;;;;;16.48;11.90;;;13.60;80.60;;;;;;4995306;28;20073;-69
2021/09/21 04:40:36;;;;;;;17.42;11.35;;;13.60;80.60;;;;;;4998789;28;20574;-68
2021/09/21 04:43:02;;;;;;;13.73;10.88;;;13.50;80.60;;;;;;4999301;28;20026;-69
2021/09/21 04:45:28;;;;;;;16.45;11.18;;;13.50;80.80;;;;;;5000690;28;20084;-68
2021/09/21 04:47:53;;;;;;;13.02;10.23;;;13.50;80.80;;;;;;5002470;28;20026;-68
2021/09/21 04:50:19;;;;;;;15.15;10.82;;;13.50;80.80;;;;;;5002359;28;20038;-68
2021/09/21 04:52:44;;;;;;;12.95;9.88;;;13.50;80.90;;;;;;5001775;28;20465;-69
2021/09/21 04:55:10;;;;;;;17.27;11.88;;;13.50;81.10;;;;;;5002637;28;20042;-68
2021/09/21 04:57:36;;;;;;;16.77;12.68;;;13.50;81.10;;;;;;5000945;28;20040;-68
2021/09/21 05:00:03;;;;;;;16.23;12.43;;;13.50;81.00;;;;;;5000923;28;20050;-68
2021/09/21 05:02:29;;;;;;;18.27;13.77;;;13.50;81.00;;;;;;5001014;28;20037;-68
2021/09/21 05:04:55;;;;;;;16.67;11.75;;;13.50;80.90;;;;;;5001253;28;20034;-68
2021/09/21 05:07:20;;;;;;;15.25;10.95;;;13.50;80.80;;;;;;5000908;28;20045;-67
2021/09/21 05:09:46;;;;;;;14.07;10.68;;;13.50;81.00;;;;;;5000893;28;20083;-68
2021/09/21 05:12:11;;;;;;;17.42;11.57;;;13.50;81.00;;;;;;4999872;28;20117;-69
2021/09/21 05:14:37;;;;;;;15.98;11.57;;;13.50;81.10;;;;;;5001321;28;20497;-67
2021/09/21 05:17:03;;;;;;;14.85;10.70;;;13.50;80.90;;;;;;5002576;28;20038;-69
2021/09/21 05:19:28;;;;;;;14.25;10.13;;;13.50;80.80;;;;;;5001892;28;20421;-68
2021/09/21 05:21:54;;;;;;;15.25;10.43;;;13.50;81.00;;;;;;5000859;28;20110;-68
2021/09/21 05:24:20;;;;;;;13.52;10.10;;;13.60;81.00;;;;;;5000151;28;20045;-69
2021/09/21 05:26:45;;;;;;;13.75;10.13;;;13.60;81.00;;;;;;5001330;28;20044;-68
2021/09/21 05:29:11;;;;;;;17.88;11.07;;;13.60;80.90;;;;;;5001227;28;20038;-68
2021/09/21 05:31:36;;;;;;;14.18;10.23;;;13.60;80.70;;;;;;5001922;28;20030;-68
2021/09/21 05:34:02;;;;;;;14.48;9.75;;;13.60;80.60;;;;;;4999048;28;20082;-69
2021/09/21 05:36:28;;;;;;;14.65;11.00;;;13.60;80.80;;;;;;5001839;28;20112;-68
2021/09/21 05:38:54;;;;;;;15.15;10.85;;;13.60;80.70;;;;;;4999472;28;20061;-68
2021/09/21 05:41:20;;;;;;;13.05;9.95;;;13.60;80.50;;;;;;5000483;28;20041;-69
2021/09/21 05:43:45;;;;;;;13.52;10.48;;;13.60;80.70;;;;;;5000696;28;20038;-68
2021/09/21 05:46:11;;;;;;;12.43;9.80;;;13.60;80.80;;;;;;5001161;28;20562;-69
2021/09/21 05:48:37;;;;;;;14.30;10.13;;;13.60;80.70;;;;;;5001469;28;20041;-68
2021/09/21 05:51:02;;;;;;;15.38;10.60;;;13.70;80.80;;;;;;5000351;28;20042;-67
2021/09/21 05:53:28;;;;;;;15.70;11.02;;;13.70;80.80;;;;;;5000251;28;20076;-68
2021/09/21 05:55:54;;;;;;;16.17;10.93;;;13.70;80.80;;;;;;4999429;28;20110;-69
2021/09/21 05:58:19;;;;;;;13.60;10.02;;;13.70;80.80;;;;;;4999843;28;20476;-68
2021/09/21 06:00:45;;;;;;;13.85;10.75;;;13.70;80.90;;;;;;5000959;28;20108;-69
2021/09/21 06:03:11;;;;;;;13.65;10.65;;;13.70;80.80;;;;;;5000086;28;20030;-68
2021/09/21 06:05:37;;;;;;;14.55;11.02;;;13.60;80.80;;;;;;5001438;28;20038;-68
2021/09/21 06:08:02;;;;;;;14.13;10.48;;;13.60;81.00;;;;;;4999529;28;20062;-68
2021/09/21 06:10:29;;;;;;;16.33;12.10;;;13.60;81.00;;;;;;4999196;28;20030;-68
2021/09/21 06:12:54;;;;;;;14.68;11.75;;;13.60;81.00;;;;;;4999204;28;20548;-68
2021/09/21 06:15:20;;;;;;;16.20;11.40;;;13.60;81.10;;;;;;4999474;28;20132;-68
2021/09/21 06:17:47;;;;;;;14.07;9.95;;;13.60;82.00;;;;;;5000010;28;20031;-69
2021/09/21 06:20:14;;;;;;;14.60;11.05;;;13.60;81.20;;;;;;5000254;28;20026;-68
2021/09/21 06:22:42;;;;;;;12.15;10.18;;;13.60;81.20;;;;;;4999731;28;20022;-69
2021/09/21 06:25:09;;;;;;;14.98;9.98;;;13.60;81.20;;;;;;4999448;28;20030;-68
2021/09/21 06:27:35;;;;;;;17.33;10.95;;;13.70;81.20;;;;;;5000214;28;20054;-69
2021/09/21 06:30:03;;;;;;;13.27;11.07;;;13.70;81.20;;;;;;5000538;28;20034;-69
2021/09/21 06:32:29;;;;;;;12.93;10.02;;;13.70;81.20;;;;;;4999567;28;20029;-69
2021/09/21 06:34:54;;;;;;;13.50;10.70;;;13.70;81.30;;;;;;5000583;28;20137;-69
2021/09/21 06:37:20;;;;;;;13.07;10.80;;;13.80;81.30;;;;;;5000144;28;20026;-69
2021/09/21 06:39:46;;;;;;;14.45;10.55;;;13.70;81.30;;;;;;4998895;28;20400;-68
2021/09/21 06:42:11;;;;;;;14.10;10.80;;;13.80;81.30;;;;;;4999699;28;20030;-66
2021/09/21 06:44:37;;;;;;;14.25;10.63;;;13.80;81.20;;;;;;5000345;28;20543;-69
2021/09/21 06:47:03;;;;;;;14.63;10.30;;;13.90;81.10;;;;;;4999175;28;20042;-68
2021/09/21 06:49:30;;;;;;;13.48;10.48;;;13.90;81.00;;;;;;4998452;28;20579;-69
2021/09/21 06:51:56;;;;;;;15.32;11.10;;;13.90;81.00;;;;;;5001544;28;20093;-68
2021/09/21 06:54:22;;;;;;;13.05;10.68;;;14.00;81.00;;;;;;5000582;28;20038;-69
2021/09/21 06:56:48;;;;;;;14.68;10.90;;;14.00;81.90;;;;;;4999753;28;20037;-69
2021/09/21 06:59:13;;;;;;;13.15;10.30;;;14.00;81.90;;;;;;4997761;28;20026;-68
2021/09/21 07:01:39;;;;;;;13.73;10.50;;;14.00;81.00;;;;;;4997181;28;20381;-68
2021/09/21 07:04:04;;;;;;;15.20;10.93;;;14.00;80.90;;;;;;4995613;28;20099;-68
2021/09/21 07:06:30;;;;;;;12.95;10.23;;;14.10;80.80;;;;;;4993503;28;20084;-67
2021/09/21 07:08:56;;;;;;;13.07;9.93;;;14.10;80.80;;;;;;5013794;28;20045;-68
2021/09/21 07:11:21;;;;;;;12.85;9.82;;;14.10;80.80;;;;;;4999457;28;20172;-68
2021/09/21 07:13:48;;;;;;;13.15;10.10;;;14.10;80.80;;;;;;4998867;28;20397;-68
2021/09/21 07:16:13;;;;;;;14.13;10.50;;;14.10;80.50;;;;;;4999189;28;20041;-69
2021/09/21 07:18:39;;;;;;;14.68;10.50;;;14.20;80.60;;;;;;4998204;28;20030;-69
2021/09/21 07:21:05;;;;;;;12.75;10.10;;;14.20;80.50;;;;;;5003608;28;20495;-70
2021/09/21 07:23:34;;;;;;;12.63;10.38;;;14.20;80.30;;;;;;4999863;28;20033;-69
2021/09/21 07:26:00;;;;;;;14.40;10.35;;;14.20;80.20;;;;;;5000005;28;20389;-69
2021/09/21 07:28:26;;;;;;;14.07;10.32;;;14.20;80.30;;;;;;4998218;28;20044;-68
2021/09/21 07:30:52;;;;;;;12.52;9.88;;;14.30;80.30;;;;;;4998512;28;20100;-69
2021/09/21 07:33:17;;;;;;;15.30;10.27;;;14.30;80.30;;;;;;5015154;28;20031;-69
2021/09/21 07:35:44;;;;;;;14.50;11.27;;;14.30;80.10;;;;;;4999925;28;20047;-68
2021/09/21 07:38:10;;;;;;;13.70;10.48;;;14.40;80.00;;;;;;4997914;28;20172;-70
2021/09/21 07:40:36;;;;;;;14.80;11.25;;;14.40;79.80;;;;;;4998099;28;20058;-69
2021/09/21 07:43:04;;;;;;;12.45;10.15;;;14.40;79.80;;;;;;5000071;28;20065;-68
2021/09/21 07:45:31;;;;;;;13.90;10.05;;;14.40;80.50;;;;;;4999751;28;20022;-70
2021/09/21 07:47:56;;;;;;;13.02;10.38;;;14.50;80.50;;;;;;4998108;28;20031;-69
2021/09/21 07:50:23;;;;;;;13.45;10.23;;;14.50;79.40;;;;;;4997621;28;20037;-68
2021/09/21 07:52:49;;;;;;;11.88;9.85;;;14.50;79.30;;;;;;4993301;28;20046;-69
2021/09/21 07:55:15;;;;;;;12.25;10.10;;;14.60;79.20;;;;;;4979912;28;20532;-69
2021/09/21 07:57:41;;;;;;;12.50;9.95;;;14.60;79.10;;;;;;4979469;28;20035;-67
2021/09/21 08:00:10;;;;;;;14.15;10.02;;;14.60;79.10;;;;;;4980245;28;20034;-69
2021/09/21 08:02:35;;;;;;;14.38;10.23;;;14.60;79.00;;;;;;4978133;28;20030;-69
2021/09/21 08:05:01;;;;;;;15.38;10.93;;;14.60;78.90;;;;;;4979031;28;20042;-69
2021/09/21 08:07:29;;;;;;;13.00;10.38;;;14.70;78.90;;;;;;4978781;28;20588;-68
2021/09/21 08:09:55;;;;;;;14.05;10.68;;;14.70;78.90;;;;;;4981896;28;20082;-68
2021/09/21 08:12:21;;;;;;;14.30;10.27;;;14.70;78.60;;;;;;4978265;28;20030;-69
2021/09/21 08:14:51;;;;;;;12.45;10.32;;;14.80;78.80;;;;;;4978011;28;20126;-68
2021/09/21 08:17:16;;;;;;;12.73;9.30;;;14.80;78.70;;;;;;4979781;28;20027;-68
2021/09/21 08:19:42;;;;;;;14.25;9.68;;;14.90;79.50;;;;;;4985345;28;20034;-69
2021/09/21 08:22:08;;;;;;;12.90;10.70;;;14.90;78.40;;;;;;4985093;28;20575;-69
2021/09/21 08:24:34;;;;;;;11.55;10.10;;;14.90;78.00;;;;;;4985573;28;20034;-69
2021/09/21 08:27:00;;;;;;;11.98;9.52;;;15.00;77.90;;;;;;4985407;28;20108;-69
2021/09/21 08:29:26;;;;;;;10.50;8.90;;;15.00;78.00;;;;;;4984889;28;20054;-69
2021/09/21 08:31:51;;;;;;;10.82;9.10;;;15.00;78.00;;;;;;4985918;28;20066;-67
2021/09/21 08:34:17;;;;;;;12.73;9.65;;;15.10;78.00;;;;;;4985818;28;20035;-69
2021/09/21 08:36:43;;;;;;;13.75;9.38;;;15.10;77.80;;;;;;4990730;28;20053;-69
2021/09/21 08:39:09;;;;;;;11.80;9.65;;;15.20;77.50;;;;;;4985286;28;20034;-68
2021/09/21 08:41:34;;;;;;;11.85;9.52;;;15.20;77.30;;;;;;4987606;28;20042;-69
2021/09/21 08:44:00;;;;;;;10.30;9.13;;;15.30;77.00;;;;;;4984367;28;20675;-69
2021/09/21 08:46:27;;;;;;;12.85;9.57;;;15.40;76.80;;;;;;4986469;28;20085;-69
2021/09/21 08:48:53;;;;;;;10.07;8.85;;;15.40;76.50;;;;;;4986884;28;20438;-69
2021/09/21 08:51:19;;;;;;;11.70;9.18;;;15.50;76.30;;;;;;4985554;28;20038;-69
2021/09/21 08:53:44;;;;;;;10.85;9.23;;;15.50;76.40;;;;;;4984782;28;20641;-70
2021/09/21 08:56:11;;;;;;;14.23;9.73;;;15.60;76.50;;;;;;4985399;28;20058;-68
2021/09/21 08:58:37;;;;;;;10.60;9.18;;;15.60;76.00;;;;;;4984399;28;20089;-68
2021/09/21 09:01:15;;;;;;;11.45;9.73;;;15.70;75.30;;;;;;4986133;28;20034;-69
2021/09/21 09:03:52;;;;;;;13.88;9.55;;;15.80;74.60;;;;;;4984971;28;20031;-69
2021/09/21 09:06:18;;;;;;;10.82;9.02;;;15.80;73.30;;;;;;4985884;28;20031;-69
2021/09/21 09:08:44;;;;;;;11.15;8.70;;;15.80;74.20;;;;;;4983942;28;20534;-68
2021/09/21 09:11:24;;;;;;;11.70;9.38;;;15.90;74.20;;;;;;4983747;28;20512;-69
2021/09/21 09:13:53;;;;;;;11.32;9.50;;;15.90;72.90;;;;;;4985031;28;20031;-69
2021/09/21 09:16:21;;;;;;;10.60;8.80;;;15.90;73.20;;;;;;4985858;28;20030;-69
2021/09/21 09:18:58;;;;;;;10.18;9.10;;;16.00;72.60;;;;;;4985192;28;20454;-68
2021/09/21 09:21:24;;;;;;;13.80;9.43;;;16.00;73.00;;;;;;4985551;28;20587;-69
2021/09/21 09:23:53;;;;;;;11.45;9.55;;;16.00;72.80;;;;;;4985964;28;20038;-68
2021/09/21 09:26:23;;;;;;;10.80;9.25;;;16.10;72.80;;;;;;4984604;28;20031;-69
2021/09/21 09:28:51;;;;;;;11.68;8.50;;;16.10;72.70;;;;;;5003772;28;20038;-69
2021/09/21 09:31:29;;;;;;;10.02;8.98;;;16.20;72.30;;;;;;5000775;28;20409;-70
2021/09/21 09:34:04;;;;;;;9.80;8.75;;;16.20;70.70;;;;;;5001235;28;20073;-69
2021/09/21 09:36:30;;;;;;;9.88;8.65;;;16.20;71.10;;;;;;4998791;28;20489;-69
2021/09/21 09:39:03;;;;;;;12.35;8.75;;;16.30;71.80;;;;;;5000594;28;20034;-69
2021/09/21 09:41:37;;;;;;;12.05;8.38;;;16.30;70.80;;;;;;4999112;28;20057;-69
2021/09/21 09:44:08;;;;;;;11.57;9.55;;;16.30;71.10;;;;;;5001701;28;20046;-69
2021/09/21 09:46:43;;;;;;;9.75;8.73;;;16.40;70.60;;;;;;5001326;28;20513;-70
2021/09/21 09:49:10;;;;;;;10.35;8.63;;;16.40;70.90;;;;;;4999975;28;20035;-69
2021/09/21 09:51:47;;;;;;;11.30;9.15;;;16.40;70.10;;;;;;5003068;28;20042;-70
2021/09/21 09:54:13;;;;;;;12.63;9.07;;;16.40;68.10;;;;;;5002304;28;20435;-68
2021/09/21 09:56:41;;;;;;;11.32;8.75;;;16.40;69.10;;;;;;5001625;28;20049;-69
2021/09/21 09:59:08;;;;;;;9.02;8.10;;;16.40;69.60;;;;;;5001227;28;20030;-69
2021/09/21 10:01:34;;;;;;;13.10;9.07;;;16.40;69.70;;;;;;5000186;28;20038;-69
2021/09/21 10:04:01;;;;;;;10.95;8.82;;;16.40;69.40;;;;;;5000824;28;20041;-69
2021/09/21 10:06:29;;;;;;;10.93;8.85;;;16.40;69.20;;;;;;4997912;28;20037;-69
2021/09/21 10:08:55;;;;;;;11.18;8.52;;;16.40;68.60;;;;;;5000846;28;20038;-70
2021/09/21 10:11:20;;;;;;;11.50;9.35;;;16.40;69.00;;;;;;4998023;28;20046;-70
2021/09/21 10:13:47;;;;;;;11.68;9.50;;;16.40;69.40;;;;;;4999753;28;20026;-68
2021/09/21 10:16:13;;;;;;;10.90;8.45;;;16.40;68.70;;;;;;5000229;28;20121;-69
2021/09/21 10:18:39;;;;;;;11.05;9.55;;;16.40;69.20;;;;;;4999911;28;20109;-69
2021/09/21 10:21:05;;;;;;;11.15;8.73;;;16.40;69.20;;;;;;4999177;28;20485;-69
2021/09/21 10:23:33;;;;;;;13.65;9.50;;;16.40;69.70;;;;;;4998950;28;20030;-69
2021/09/21 10:26:12;;;;;;;10.68;8.82;;;16.40;69.50;;;;;;4999054;28;20608;-69
2021/09/21 10:28:39;;;;;;;10.15;8.32;;;16.50;68.60;;;;;;4999837;28;20026;-69
2021/09/21 10:31:14;;;;;;;11.45;9.35;;;16.50;69.20;;;;;;5000554;28;20065;-68
2021/09/21 10:33:40;;;;;;;;;;;16.60;68.50;;;;;;4999175;28;20117;-69
2021/09/21 10:36:20;;;;;;;10.27;8.43;;;16.60;69.10;;;;;;5000723;28;20472;-70
2021/09/21 10:39:12;;;;;;;9.82;8.73;;;16.70;68.00;;;;;;4999011;28;20030;-69
2021/09/21 10:41:58;;;;;;;9.60;8.60;;;16.70;67.30;;;;;;4995924;28;20448;-69
2021/09/21 10:44:25;;;;;;;10.93;9.35;;;16.70;66.90;;;;;;4999219;28;20073;-70
2021/09/21 10:46:53;;;;;;;10.05;8.68;;;16.60;67.60;;;;;;4999289;28;20038;-69
2021/09/21 10:49:40;;;;;;;11.48;9.18;;;16.70;68.10;;;;;;4998428;28;20030;-69
2021/09/21 10:52:14;;;;;;;12.32;9.23;;;16.60;66.90;;;;;;4999784;28;20129;-69
2021/09/21 10:54:41;;;;;;;13.68;8.75;;;16.70;67.40;;;;;;4999253;28;20038;-69
2021/09/21 10:57:17;;;;;;;9.57;8.52;;;16.70;68.30;;;;;;4998342;28;20206;-69
2021/09/21 10:59:56;;;;;;;10.23;8.57;;;16.70;68.20;;;;;;5002547;28;20038;-69
2021/09/21 11:02:24;;;;;;;12.00;9.00;;;16.70;68.40;;;;;;4998516;28;20034;-69
2021/09/21 11:04:50;;;;;;;11.32;9.02;;;16.80;68.70;;;;;;4998215;28;20053;-69
2021/09/21 11:07:16;;;;;;;9.48;8.45;;;16.90;68.50;;;;;;5000316;28;20412;-69
2021/09/21 11:09:48;;;;;;;11.13;8.65;;;17.00;68.40;;;;;;4999576;28;20089;-69
2021/09/21 11:12:14;;;;;;;9.93;8.60;;;17.00;68.20;;;;;;4997596;28;20453;-69
2021/09/21 11:14:42;;;;;;;11.25;9.38;;;17.10;67.90;;;;;;4997664;28;20022;-69
2021/09/21 11:17:09;;;;;;;11.00;9.48;;;17.20;66.60;;;;;;4999843;28;20038;-70
2021/09/21 11:19:36;;;;;;;9.90;8.70;;;17.30;67.10;;;;;;4999471;28;20106;-70
2021/09/21 11:22:05;;;;;;;11.48;8.95;;;17.30;67.30;;;;;;4998286;28;20045;-70
2021/09/21 11:24:32;;;;;;;9.48;8.48;;;17.40;67.10;;;;;;4999061;28;20404;-68
2021/09/21 11:27:03;;;;;;;8.93;8.02;;;17.40;66.90;;;;;;4999712;28;20042;-69
2021/09/21 11:29:30;;;;;;;9.95;8.65;;;17.50;66.60;;;;;;4999226;28;20034;-69
2021/09/21 11:31:55;;;;;;;10.48;8.73;;;17.60;66.20;;;;;;4998656;28;20042;-69
2021/09/21 11:34:27;;;;;;;11.85;9.45;;;17.60;66.20;;;;;;5003529;28;20069;-69
2021/09/21 11:36:54;;;;;;;10.57;8.88;;;17.70;65.90;;;;;;5000321;28;20505;-68
2021/09/21 11:39:19;;;;;;;9.95;8.05;;;17.80;65.30;;;;;;4999465;28;20026;-69
2021/09/21 11:41:52;;;;;;;10.60;8.95;;;17.80;65.80;;;;;;5000637;28;20088;-68
2021/09/21 11:44:18;;;;;;;12.43;9.35;;;17.90;64.70;;;;;;4999942;28;20042;-68
2021/09/21 11:46:43;;;;;;;11.73;9.18;;;17.90;64.50;;;;;;5000192;28;20045;-69
2021/09/21 11:49:09;;;;;;;13.18;9.15;;;18.00;64.50;;;;;;4999004;28;20030;-68
2021/09/21 11:51:37;;;;;;;10.63;9.32;;;18.00;63.30;;;;;;4999929;28;20036;-68
2021/09/21 11:54:04;;;;;;;11.88;8.98;;;18.00;63.80;;;;;;4998294;28;20066;-69
2021/09/21 11:56:30;;;;;;;10.13;8.48;;;18.10;63.60;;;;;;4999307;28;20030;-69
2021/09/21 11:59:00;;;;;;;10.02;8.73;;;18.10;64.00;;;;;;4998796;28;20509;-70
2021/09/21 12:01:28;;;;;;;9.70;8.75;;;18.10;63.50;;;;;;5000103;28;20129;-69
2021/09/21 12:03:54;;;;;;;9.48;7.97;;;18.10;63.80;;;;;;4998436;28;20041;-71
2021/09/21 12:06:38;;;;;;;10.15;8.75;;;18.10;64.00;;;;;;4998954;28;20038;-70
2021/09/21 12:09:06;;;;;;;9.90;8.40;;;18.10;62.90;;;;;;4992472;28;20069;-70
2021/09/21 12:11:36;;;;;;;10.52;8.40;;;18.20;64.10;;;;;;4975145;28;20042;-69
2021/09/21 12:14:05;;;;;;;9.40;8.45;;;18.20;63.80;;;;;;4977977;28;20081;-68
2021/09/21 12:16:31;;;;;;;10.70;8.80;;;18.20;63.50;;;;;;4977105;28;20382;-67
2021/09/21 12:18:58;;;;;;;11.60;9.48;;;18.30;63.50;;;;;;4982253;28;20153;-69
2021/09/21 12:21:27;;;;;;;10.05;8.80;;;18.30;63.10;;;;;;4977916;28;20042;-69
2021/09/21 12:23:53;;;;;;;10.80;9.18;;;18.30;62.90;;;;;;4978877;28;20100;-69
2021/09/21 12:26:21;;;;;;;10.38;8.70;;;18.30;63.10;;;;;;4978372;28;20034;-69
2021/09/21 12:28:49;;;;;;;10.13;8.23;;;18.30;63.00;;;;;;4978856;28;20045;-69
2021/09/21 12:31:15;;;;;;;11.57;8.93;;;18.40;62.90;;;;;;4979380;28;20035;-69
2021/09/21 12:33:42;;;;;;;11.05;8.82;;;18.40;63.00;;;;;;4977851;28;20089;-71
2021/09/21 12:36:27;;;;;;;10.40;8.88;;;18.40;62.80;;;;;;4979940;28;20035;-69
2021/09/21 12:38:57;;;;;;;11.73;9.85;;;18.40;61.70;;;;;;4998444;28;20045;-69
2021/09/21 12:41:23;;;;;;;12.20;9.82;;;18.40;61.50;;;;;;4998318;28;20188;-69
2021/09/21 12:43:53;;;;;;;12.40;9.50;;;18.40;61.00;;;;;;4997770;28;20152;-69
2021/09/21 12:46:19;;;;;;;9.15;8.25;;;18.40;61.90;;;;;;4999397;28;20516;-68